X  Sluiten METAR luchtvaart weer gegevens      EHRD Rotterdam The Hague Airport
Temperatuur
64°F Temperatuur
61°F Dauwpunt
88% Vochtigheid



Wind
5 MPH
8 KM/U
2 M/S
4 KTS



110°
OZO
Huidig weer

Grotendeels bewolkt Grotendeels bewolkt
Luchtdruk 1005.08 (hPa) - 29.68 (inHg)
Zicht 6 (mijl) - 9.7 (km)
Vliegveld
Vliegveld code EHRD

Locatie : Rotterdam The Hague Airport
Afstand: 14 (mi)

Metar:
EHRD 152355Z AUTO 11004KT 9999 BKN045 18/16 Q1005 NOSIG

Tijd: 16-07-2024 01:55 CEST